createdAt,value
2022-10-27T00:01:43.955Z,74.69
2022-10-27T00:04:17.568Z,74.44
2022-10-27T00:06:51.082Z,74.61
2022-10-27T00:09:24.573Z,74.62
2022-10-27T00:11:58.111Z,74.58
2022-10-27T00:14:33.020Z,74.59
2022-10-27T00:17:06.535Z,74.86
2022-10-27T00:19:39.952Z,74.74
2022-10-27T00:22:13.363Z,74.86
2022-10-27T00:24:46.797Z,74.71
2022-10-27T00:27:20.272Z,74.78
2022-10-27T00:29:55.135Z,74.61
2022-10-27T00:32:28.521Z,74.66
2022-10-27T00:35:01.965Z,74.60
2022-10-27T00:37:35.414Z,74.64
2022-10-27T00:40:09.942Z,74.43
2022-10-27T00:42:49.070Z,74.64
2022-10-27T00:45:23.943Z,74.54
2022-10-27T00:47:57.365Z,74.55
2022-10-27T00:50:30.735Z,74.50
2022-10-27T00:53:04.318Z,74.58
2022-10-27T00:55:41.316Z,74.45
2022-10-27T00:58:20.197Z,74.67
2022-10-27T01:00:55.104Z,74.67
2022-10-27T01:03:28.810Z,74.75
2022-10-27T01:06:03.006Z,74.68
2022-10-27T01:08:37.299Z,74.59
2022-10-27T01:11:10.702Z,74.50
2022-10-27T01:13:44.412Z,74.38
2022-10-27T01:16:27.265Z,74.48
2022-10-27T01:19:13.569Z,74.70
2022-10-27T01:21:59.348Z,74.60
2022-10-27T01:25:01.086Z,74.72
2022-10-27T01:28:10.047Z,74.74
2022-10-27T01:31:02.963Z,74.78
2022-10-27T01:33:41.872Z,74.86
2022-10-27T01:36:21.857Z,74.88
2022-10-27T01:39:00.636Z,74.91
2022-10-27T01:44:24.251Z,74.97
2022-10-27T01:46:59.630Z,74.99
2022-10-27T01:49:39.888Z,75.09
2022-10-27T01:52:40.314Z,75.10
2022-10-27T01:55:21.913Z,75.27
2022-10-27T01:58:13.521Z,75.28
2022-10-27T02:00:59.868Z,75.35
2022-10-27T02:03:41.228Z,75.52
2022-10-27T02:06:23.991Z,75.39
2022-10-27T02:09:05.618Z,75.64
2022-10-27T02:11:43.357Z,75.49
2022-10-27T02:14:17.444Z,75.59
2022-10-27T02:16:54.733Z,75.82
2022-10-27T02:19:34.689Z,75.74
2022-10-27T02:22:08.696Z,75.58
2022-10-27T02:24:42.330Z,75.59
2022-10-27T02:27:24.147Z,75.47
2022-10-27T02:30:00.431Z,75.54
2022-10-27T02:32:35.244Z,75.58
2022-10-27T02:35:12.473Z,75.62
2022-10-27T02:37:47.186Z,75.70
2022-10-27T02:40:20.772Z,75.79
2022-10-27T02:42:54.377Z,75.73
2022-10-27T02:45:27.989Z,75.73
2022-10-27T02:48:01.412Z,75.71
2022-10-27T02:50:36.526Z,75.67
2022-10-27T02:53:10.061Z,75.60
2022-10-27T02:55:43.613Z,75.58
2022-10-27T02:58:17.106Z,75.58
2022-10-27T03:00:55.913Z,75.69
2022-10-27T03:03:29.572Z,75.72
2022-10-27T03:06:04.502Z,75.66
2022-10-27T03:08:37.961Z,75.87
2022-10-27T03:11:11.529Z,75.86
2022-10-27T03:13:44.988Z,75.77
2022-10-27T03:16:18.637Z,75.88
2022-10-27T03:18:52.344Z,75.82
2022-10-27T03:21:27.262Z,75.99
2022-10-27T03:24:00.941Z,76.07
2022-10-27T03:26:34.567Z,76.27
2022-10-27T03:29:11.153Z,76.22
2022-10-27T03:31:44.823Z,76.28
2022-10-27T03:34:20.262Z,76.45
2022-10-27T03:36:56.370Z,76.38
2022-10-27T03:39:29.929Z,76.41
2022-10-27T03:42:03.682Z,76.25
2022-10-27T03:44:37.129Z,76.16
2022-10-27T03:47:11.727Z,76.16
2022-10-27T03:49:45.198Z,76.34
2022-10-27T03:52:22.044Z,76.28
2022-10-27T03:54:55.484Z,76.27
2022-10-27T03:57:29.024Z,76.30
2022-10-27T04:00:02.444Z,76.31
2022-10-27T04:02:45.244Z,76.15
2022-10-27T04:05:18.728Z,76.15
2022-10-27T04:07:53.776Z,76.29
2022-10-27T04:10:27.629Z,76.29
2022-10-27T04:13:01.238Z,76.26
2022-10-27T04:15:34.700Z,76.19
2022-10-27T04:18:08.355Z,76.30
2022-10-27T04:20:42.096Z,76.09
2022-10-27T04:23:16.679Z,75.83
2022-10-27T04:25:49.805Z,75.54
2022-10-27T04:28:23.537Z,75.78
2022-10-27T04:30:57.081Z,75.87
2022-10-27T04:33:30.607Z,76.03
2022-10-27T04:36:05.597Z,76.06
2022-10-27T04:38:40.994Z,76.17
2022-10-27T04:41:14.456Z,76.12
2022-10-27T04:46:25.567Z,76.18
2022-10-27T04:48:59.195Z,76.26
2022-10-27T04:51:32.677Z,76.35
2022-10-27T04:54:07.814Z,76.31
2022-10-27T04:56:41.311Z,76.33
2022-10-27T04:59:15.074Z,76.24
2022-10-27T05:01:48.668Z,76.23
2022-10-27T05:04:22.186Z,76.18
2022-10-27T05:06:55.684Z,76.29
2022-10-27T05:09:30.718Z,76.23
2022-10-27T05:12:04.250Z,76.32
2022-10-27T05:14:39.712Z,76.25
2022-10-27T05:17:16.800Z,76.26
2022-10-27T05:19:52.553Z,76.34
2022-10-27T05:22:25.995Z,76.23
2022-10-27T05:25:00.799Z,76.40
2022-10-27T05:27:34.427Z,76.28
2022-10-27T05:30:09.997Z,76.32
2022-10-27T05:32:44.997Z,76.28
2022-10-27T05:35:20.877Z,76.24
2022-10-27T05:37:54.601Z,76.37
2022-10-27T05:40:34.665Z,76.38
2022-10-27T05:43:08.217Z,76.27
2022-10-27T05:45:41.747Z,76.19
2022-10-27T05:48:15.222Z,76.07
2022-10-27T05:50:53.983Z,76.25
2022-10-27T05:53:27.398Z,76.15
2022-10-27T05:56:02.289Z,75.96
2022-10-27T05:58:38.964Z,76.23
2022-10-27T06:01:12.911Z,76.24
2022-10-27T06:03:46.491Z,76.34
2022-10-27T06:06:19.874Z,76.24
2022-10-27T06:08:53.368Z,76.27
2022-10-27T06:11:28.305Z,76.13
2022-10-27T06:14:01.778Z,76.22
2022-10-27T06:16:35.403Z,76.26
2022-10-27T06:19:08.832Z,75.98
2022-10-27T06:21:42.245Z,76.07
2022-10-27T06:24:15.765Z,75.89
2022-10-27T06:26:53.194Z,75.89
2022-10-27T06:29:29.591Z,75.68
2022-10-27T06:32:03.214Z,75.56
2022-10-27T06:34:36.731Z,75.40
2022-10-27T06:37:10.331Z,75.29
2022-10-27T06:39:44.213Z,75.15
2022-10-27T06:42:22.478Z,74.66
2022-10-27T06:44:57.569Z,74.51
2022-10-27T06:47:36.785Z,74.54
2022-10-27T06:50:13.918Z,74.36
2022-10-27T06:52:51.629Z,74.24
2022-10-27T06:55:28.865Z,74.09
2022-10-27T06:58:03.780Z,73.74
2022-10-27T07:00:38.096Z,73.43
2022-10-27T07:03:12.226Z,73.00
2022-10-27T07:05:45.690Z,72.79
2022-10-27T07:08:19.185Z,72.37
2022-10-27T07:10:52.711Z,71.86
2022-10-27T07:13:29.736Z,71.28
2022-10-27T07:16:03.485Z,70.44
2022-10-27T07:18:40.028Z,69.48
2022-10-27T07:21:14.364Z,68.15
2022-10-27T07:23:49.973Z,67.22
2022-10-27T07:26:26.162Z,66.16
2022-10-27T07:29:00.988Z,65.63
2022-10-27T07:31:34.463Z,64.93
2022-10-27T07:34:07.881Z,64.65
2022-10-27T07:36:41.324Z,64.23
2022-10-27T07:39:14.721Z,63.64
2022-10-27T07:41:48.164Z,63.57
2022-10-27T07:44:28.524Z,63.30
2022-10-27T07:47:01.973Z,63.06
2022-10-27T07:49:43.377Z,62.68
2022-10-27T07:52:17.259Z,62.22
2022-10-27T07:54:56.003Z,61.79
2022-10-27T07:57:29.406Z,61.19
2022-10-27T08:00:04.439Z,60.40
2022-10-27T08:02:46.075Z,58.82
2022-10-27T08:05:19.862Z,56.84
2022-10-27T08:07:53.776Z,54.53
2022-10-27T08:10:28.040Z,51.65
2022-10-27T08:13:01.588Z,49.64
2022-10-27T08:15:37.551Z,47.27
2022-10-27T08:18:15.031Z,45.27
2022-10-27T08:20:49.370Z,43.23
2022-10-27T08:23:25.792Z,41.65
2022-10-27T08:25:59.457Z,39.71
2022-10-27T08:28:32.940Z,38.05
2022-10-27T08:31:08.174Z,37.13
2022-10-27T08:33:44.361Z,36.25
2022-10-27T08:36:18.567Z,35.35
2022-10-27T08:38:52.001Z,34.00
2022-10-27T08:41:32.062Z,32.90
2022-10-27T08:44:21.576Z,32.68
2022-10-27T08:47:00.855Z,31.77
2022-10-27T08:49:49.019Z,31.10
2022-10-27T08:52:29.350Z,30.45
2022-10-27T08:55:19.131Z,29.94
2022-10-27T08:58:01.746Z,29.25
2022-10-27T09:00:45.816Z,28.79
2022-10-27T09:03:38.745Z,28.02
2022-10-27T09:06:19.434Z,27.16
2022-10-27T09:09:01.632Z,26.93
2022-10-27T09:11:46.033Z,26.07
2022-10-27T09:14:34.790Z,25.40
2022-10-27T09:17:13.863Z,24.69
2022-10-27T09:19:53.555Z,24.55
2022-10-27T09:22:27.994Z,23.77
2022-10-27T09:25:06.086Z,23.59
2022-10-27T09:27:40.598Z,22.77
2022-10-27T09:30:15.916Z,22.26
2022-10-27T09:32:53.874Z,21.90
2022-10-27T09:35:30.172Z,21.80
2022-10-27T09:38:04.641Z,21.72
2022-10-27T09:40:38.902Z,21.26
2022-10-27T09:43:12.851Z,21.06
2022-10-27T09:45:49.745Z,20.53
2022-10-27T09:48:26.848Z,20.66
2022-10-27T09:51:08.301Z,20.00
2022-10-27T09:53:44.963Z,19.61
2022-10-27T09:56:24.837Z,19.48
2022-10-27T09:59:02.823Z,19.21
2022-10-27T10:01:57.507Z,19.73
2022-10-27T10:04:33.228Z,18.62
2022-10-27T10:07:08.980Z,19.00
2022-10-27T10:09:42.892Z,18.25
2022-10-27T10:12:23.874Z,18.31
2022-10-27T10:15:21.540Z,18.71
2022-10-27T10:18:00.178Z,18.38
2022-10-27T10:23:24.923Z,17.88
2022-10-27T10:26:00.130Z,17.69
2022-10-27T10:28:37.175Z,17.54
2022-10-27T10:31:14.000Z,17.67
2022-10-27T10:33:49.216Z,17.88
2022-10-27T10:36:29.284Z,18.75
2022-10-27T10:39:21.976Z,20.48
2022-10-27T10:42:19.364Z,22.04
2022-10-27T10:45:11.438Z,23.32
2022-10-27T10:47:49.475Z,23.48
2022-10-27T10:50:24.112Z,23.24
2022-10-27T10:53:00.444Z,22.14
2022-10-27T10:55:39.652Z,22.19
2022-10-27T10:58:17.314Z,20.77
2022-10-27T11:00:56.224Z,20.17
2022-10-27T11:03:34.488Z,19.80
2022-10-27T11:06:19.068Z,19.33
2022-10-27T11:09:00.683Z,18.72
2022-10-27T11:11:45.273Z,18.62
2022-10-27T11:14:20.178Z,18.42
2022-10-27T11:16:57.343Z,18.45
2022-10-27T11:19:37.163Z,18.15
2022-10-27T11:22:17.014Z,18.44
2022-10-27T11:24:57.294Z,19.00
2022-10-27T11:27:41.131Z,18.77
2022-10-27T11:30:23.206Z,19.06
2022-10-27T11:33:09.873Z,18.99
2022-10-27T11:35:51.760Z,19.14
2022-10-27T11:38:34.477Z,18.96
2022-10-27T11:41:17.107Z,18.73
2022-10-27T11:44:04.658Z,18.88
2022-10-27T11:46:45.907Z,18.64
2022-10-27T11:49:29.007Z,17.86
2022-10-27T11:52:10.766Z,17.75
2022-10-27T11:54:44.447Z,17.63
2022-10-27T11:57:40.045Z,17.90
2022-10-27T12:00:21.797Z,18.05
2022-10-27T12:03:54.554Z,18.33
2022-10-27T12:06:40.204Z,18.60
2022-10-27T12:09:22.954Z,19.15
2022-10-27T12:12:06.356Z,18.66
2022-10-27T12:14:47.184Z,18.96
2022-10-27T12:17:31.803Z,19.61
2022-10-27T12:20:08.980Z,19.42
2022-10-27T12:22:48.210Z,19.65
2022-10-27T12:25:25.272Z,19.19
2022-10-27T12:28:02.256Z,20.02
2022-10-27T12:30:37.891Z,20.26
2022-10-27T12:33:20.264Z,20.56
2022-10-27T12:35:57.405Z,20.70
2022-10-27T12:38:39.018Z,19.94
2022-10-27T12:41:29.028Z,20.04
2022-10-27T12:44:18.980Z,20.46
2022-10-27T12:47:15.606Z,20.32
2022-10-27T12:50:03.276Z,20.51
2022-10-27T12:52:44.588Z,20.32
2022-10-27T12:55:32.810Z,19.89
2022-10-27T12:58:11.418Z,20.01
2022-10-27T13:00:51.142Z,20.03
2022-10-27T13:03:55.626Z,20.09
2022-10-27T13:06:48.634Z,20.01
2022-10-27T13:10:05.427Z,19.87
2022-10-27T13:12:53.482Z,19.99
2022-10-27T13:15:55.274Z,20.42
2022-10-27T13:18:51.832Z,20.73
2022-10-27T13:21:34.674Z,20.99
2022-10-27T13:24:24.396Z,21.30
2022-10-27T13:27:05.514Z,21.39
2022-10-27T13:29:44.319Z,21.96
2022-10-27T13:32:19.543Z,22.22
2022-10-27T13:35:22.775Z,22.16
2022-10-27T13:38:28.568Z,22.75
2022-10-27T13:41:05.499Z,23.38
2022-10-27T13:43:50.161Z,24.10
2022-10-27T13:47:10.944Z,25.49
2022-10-27T13:50:04.840Z,26.86
2022-10-27T13:52:40.646Z,28.47
2022-10-27T13:55:36.236Z,29.58
2022-10-27T13:58:38.429Z,30.81
2022-10-27T14:01:36.613Z,32.49
2022-10-27T14:04:27.372Z,33.93
2022-10-27T14:07:03.121Z,35.08
2022-10-27T14:09:40.007Z,36.21
2022-10-27T14:12:20.959Z,37.23
2022-10-27T14:15:04.018Z,38.31
2022-10-27T14:17:37.873Z,38.89
2022-10-27T14:20:20.546Z,40.29
2022-10-27T14:22:58.770Z,40.89
2022-10-27T14:25:33.386Z,42.00
2022-10-27T14:28:15.262Z,42.74
2022-10-27T14:31:10.360Z,43.24
2022-10-27T14:33:46.708Z,43.87
2022-10-27T14:36:33.440Z,44.88
2022-10-27T14:39:24.094Z,45.48
2022-10-27T14:42:04.425Z,46.21
2022-10-27T14:44:37.995Z,46.66
2022-10-27T14:47:16.228Z,47.17
2022-10-27T14:49:52.550Z,47.66
2022-10-27T14:52:35.649Z,47.78
2022-10-27T14:55:19.512Z,48.00
2022-10-27T14:57:54.752Z,48.80
2022-10-27T15:00:32.456Z,49.70
2022-10-27T15:03:09.004Z,49.98
2022-10-27T15:05:47.294Z,50.61
2022-10-27T15:08:22.934Z,50.97
2022-10-27T15:11:02.480Z,50.85
2022-10-27T15:13:36.935Z,51.33
2022-10-27T15:16:17.806Z,51.65
2022-10-27T15:18:53.217Z,52.57
2022-10-27T15:21:28.289Z,52.76
2022-10-27T15:24:09.695Z,52.61
2022-10-27T15:26:43.713Z,52.99
2022-10-27T15:29:20.686Z,53.51
2022-10-27T15:32:11.682Z,53.83
2022-10-27T15:34:46.970Z,54.01
2022-10-27T15:37:30.535Z,54.13
2022-10-27T15:40:36.462Z,54.19
2022-10-27T15:43:27.430Z,54.83
2022-10-27T15:46:13.077Z,54.90
2022-10-27T15:48:52.921Z,55.67
2022-10-27T15:51:44.165Z,55.87
2022-10-27T15:54:26.290Z,55.95
2022-10-27T15:57:02.411Z,56.54
2022-10-27T15:59:42.659Z,56.87
2022-10-27T16:02:46.226Z,56.74
2022-10-27T16:05:55.026Z,56.59
2022-10-27T16:08:41.967Z,57.18
2022-10-27T16:11:16.411Z,57.89
2022-10-27T16:13:53.455Z,58.04
2022-10-27T16:16:27.646Z,58.29
2022-10-27T16:19:03.257Z,58.44
2022-10-27T16:21:36.742Z,58.79
2022-10-27T16:24:16.310Z,57.60
2022-10-27T16:26:53.074Z,58.47
2022-10-27T16:29:28.119Z,59.15
2022-10-27T16:32:02.898Z,59.28
2022-10-27T16:34:36.465Z,59.51
2022-10-27T16:37:19.021Z,59.86
2022-10-27T16:39:56.137Z,60.16
2022-10-27T16:42:31.675Z,60.40
2022-10-27T16:45:05.602Z,60.52
2022-10-27T16:47:39.313Z,60.41
2022-10-27T16:50:13.198Z,60.64
2022-10-27T16:52:53.481Z,60.55
2022-10-27T16:55:28.498Z,61.11
2022-10-27T16:58:04.041Z,61.01
2022-10-27T17:00:40.660Z,61.28
2022-10-27T17:03:16.531Z,61.42
2022-10-27T17:05:50.844Z,61.71
2022-10-27T17:08:29.050Z,61.99
2022-10-27T17:11:08.663Z,62.04
2022-10-27T17:13:44.992Z,62.18
2022-10-27T17:16:19.481Z,62.45
2022-10-27T17:18:54.087Z,62.34
2022-10-27T17:21:32.655Z,62.34
2022-10-27T17:24:06.880Z,62.40
2022-10-27T17:26:41.736Z,62.65
2022-10-27T17:29:15.443Z,62.55
2022-10-27T17:31:48.992Z,62.64
2022-10-27T17:34:22.206Z,61.79
2022-10-27T17:36:58.235Z,62.20
2022-10-27T17:39:31.461Z,61.35
2022-10-27T17:42:09.820Z,62.30
2022-10-27T17:44:43.464Z,62.63
2022-10-27T17:47:16.795Z,61.75
2022-10-27T17:49:55.383Z,62.55
2022-10-27T17:52:33.769Z,62.96
2022-10-27T17:55:11.122Z,63.10
2022-10-27T17:57:48.008Z,63.37
2022-10-27T18:00:26.772Z,63.64
2022-10-27T18:03:00.486Z,63.68
2022-10-27T18:05:45.742Z,64.02
2022-10-27T18:08:19.487Z,64.22
2022-10-27T18:10:53.359Z,64.25
2022-10-27T18:13:33.941Z,64.53
2022-10-27T18:16:11.742Z,64.65
2022-10-27T18:18:45.551Z,64.73
2022-10-27T18:21:19.632Z,64.77
2022-10-27T18:23:56.250Z,65.12
2022-10-27T18:26:30.939Z,65.32
2022-10-27T18:29:06.707Z,65.29
2022-10-27T18:31:41.409Z,65.49
2022-10-27T18:34:17.053Z,65.56
2022-10-27T18:36:50.456Z,65.63
2022-10-27T18:39:24.345Z,65.62
2022-10-27T18:44:37.845Z,65.84
2022-10-27T18:47:11.280Z,65.76
2022-10-27T18:49:48.771Z,65.76
2022-10-27T18:52:22.502Z,66.11
2022-10-27T18:54:56.081Z,66.03
2022-10-27T18:57:32.647Z,66.25
2022-10-27T19:00:09.680Z,66.06
2022-10-27T19:02:43.257Z,66.34
2022-10-27T19:05:21.768Z,66.44
2022-10-27T19:07:55.372Z,66.44
2022-10-27T19:10:28.458Z,65.54
2022-10-27T19:13:01.949Z,66.34
2022-10-27T19:15:37.000Z,66.71
2022-10-27T19:18:10.819Z,66.63
2022-10-27T19:20:45.648Z,66.89
2022-10-27T19:23:19.060Z,67.03
2022-10-27T19:25:53.272Z,66.89
2022-10-27T19:28:26.706Z,67.03
2022-10-27T19:31:01.814Z,67.03
2022-10-27T19:33:35.333Z,67.37
2022-10-27T19:36:10.853Z,67.34
2022-10-27T19:38:44.439Z,67.42
2022-10-27T19:41:20.108Z,67.68
2022-10-27T19:43:55.925Z,67.61
2022-10-27T19:46:31.346Z,67.93
2022-10-27T19:49:06.380Z,68.16
2022-10-27T19:51:43.000Z,68.30
2022-10-27T19:54:20.830Z,68.15
2022-10-27T19:56:54.421Z,68.18
2022-10-27T19:59:27.859Z,68.37
2022-10-27T20:02:05.363Z,68.33
2022-10-27T20:04:39.987Z,68.45
2022-10-27T20:07:13.405Z,68.71
2022-10-27T20:09:46.834Z,68.77
2022-10-27T20:12:21.492Z,68.96
2022-10-27T20:14:54.926Z,69.02
2022-10-27T20:17:29.841Z,69.32
2022-10-27T20:20:03.260Z,69.37
2022-10-27T20:22:36.799Z,69.37
2022-10-27T20:25:10.889Z,69.58
2022-10-27T20:27:46.058Z,69.93
2022-10-27T20:30:19.533Z,70.13
2022-10-27T20:32:54.573Z,70.10
2022-10-27T20:35:28.115Z,69.95
2022-10-27T20:38:07.059Z,69.71
2022-10-27T20:40:43.607Z,70.01
2022-10-27T20:43:17.079Z,69.78
2022-10-27T20:45:56.218Z,69.80
2022-10-27T20:48:31.326Z,69.80
2022-10-27T20:51:11.807Z,69.86
2022-10-27T20:53:56.546Z,69.96
2022-10-27T20:56:31.663Z,70.02
2022-10-27T20:59:06.274Z,70.24
2022-10-27T21:01:41.385Z,70.29
2022-10-27T21:04:18.158Z,70.48
2022-10-27T21:06:53.091Z,70.60
2022-10-27T21:09:26.613Z,70.65
2022-10-27T21:12:00.471Z,70.64
2022-10-27T21:14:36.852Z,70.69
2022-10-27T21:17:17.055Z,70.79
2022-10-27T21:20:13.325Z,70.77
2022-10-27T21:22:46.875Z,70.72
2022-10-27T21:25:22.901Z,70.77
2022-10-27T21:27:57.408Z,71.13
2022-10-27T21:30:30.962Z,71.12
2022-10-27T21:33:04.228Z,70.37
2022-10-27T21:35:39.460Z,70.83
2022-10-27T21:38:13.037Z,71.19
2022-10-27T21:40:51.583Z,71.27
2022-10-27T21:43:25.072Z,71.43
2022-10-27T21:45:59.238Z,71.41
2022-10-27T21:48:33.331Z,71.71
2022-10-27T21:51:13.334Z,71.54
2022-10-27T21:53:47.035Z,71.39
2022-10-27T21:56:20.307Z,70.56
2022-10-27T21:58:58.415Z,70.79
2022-10-27T22:01:35.951Z,71.11
2022-10-27T22:04:09.807Z,71.18
2022-10-27T22:06:44.518Z,70.55
2022-10-27T22:09:23.450Z,70.90
2022-10-27T22:11:59.869Z,70.86
2022-10-27T22:14:36.814Z,71.01
2022-10-27T22:17:10.384Z,71.23
2022-10-27T22:19:43.898Z,71.19
2022-10-27T22:22:21.308Z,71.28
2022-10-27T22:24:59.375Z,71.19
2022-10-27T22:27:33.536Z,71.48
2022-10-27T22:30:11.023Z,71.70
2022-10-27T22:32:49.858Z,71.66
2022-10-27T22:35:23.368Z,71.60
2022-10-27T22:38:00.848Z,71.67
2022-10-27T22:40:34.345Z,71.67
2022-10-27T22:43:08.933Z,71.59
2022-10-27T22:45:44.748Z,71.67
2022-10-27T22:48:18.692Z,71.90
2022-10-27T22:50:59.726Z,72.04
2022-10-27T22:53:39.033Z,72.09
2022-10-27T22:56:16.062Z,71.95
2022-10-27T22:58:50.557Z,71.84
2022-10-27T23:01:26.935Z,72.01
2022-10-27T23:04:02.925Z,72.36
2022-10-27T23:06:38.468Z,72.10
2022-10-27T23:09:16.839Z,72.12
2022-10-27T23:11:50.614Z,72.26
2022-10-27T23:14:24.126Z,72.36
2022-10-27T23:16:59.246Z,72.38
2022-10-27T23:19:32.729Z,72.71
2022-10-27T23:22:06.126Z,72.70
2022-10-27T23:24:41.360Z,72.77
2022-10-27T23:27:14.898Z,72.92
2022-10-27T23:29:48.182Z,72.16
2022-10-27T23:32:21.927Z,72.57
2022-10-27T23:34:55.127Z,72.00
2022-10-27T23:37:28.708Z,72.27
2022-10-27T23:40:03.754Z,72.68
2022-10-27T23:42:37.291Z,72.79
2022-10-27T23:45:10.987Z,72.13
2022-10-27T23:47:44.649Z,72.49
2022-10-27T23:50:18.334Z,72.61
2022-10-27T23:52:51.765Z,71.97
2022-10-27T23:55:26.997Z,72.41
2022-10-27T23:58:00.707Z,72.68
